createdAt,value
2018-05-29T00:02:17.309Z,29.77
2018-05-29T00:04:49.225Z,28.60
2018-05-29T00:07:17.018Z,30.53
2018-05-29T00:09:45.088Z,32.67
2018-05-29T00:12:14.928Z,32.83
2018-05-29T00:14:49.146Z,28.70
2018-05-29T00:17:21.175Z,31.63
2018-05-29T00:19:50.485Z,30.10
2018-05-29T00:22:25.616Z,34.00
2018-05-29T00:24:53.197Z,29.47
2018-05-29T00:27:21.517Z,31.30
2018-05-29T00:29:50.777Z,31.73
2018-05-29T00:32:28.611Z,31.00
2018-05-29T00:34:56.982Z,34.00
2018-05-29T00:37:25.552Z,34.07
2018-05-29T00:39:53.693Z,36.93
2018-05-29T00:42:21.280Z,35.93
2018-05-29T00:44:50.668Z,34.47
2018-05-29T00:47:24.474Z,34.20
2018-05-29T00:49:56.633Z,35.47
2018-05-29T00:52:25.263Z,33.40
2018-05-29T00:55:12.439Z,35.37
2018-05-29T00:57:46.238Z,38.00
2018-05-29T01:00:20.925Z,34.30
2018-05-29T01:02:55.574Z,33.73
2018-05-29T01:05:28.071Z,32.83
2018-05-29T01:07:57.668Z,32.63
2018-05-29T01:10:25.482Z,32.57
2018-05-29T01:12:53.821Z,33.93
2018-05-29T01:15:21.860Z,32.80
2018-05-29T01:17:56.474Z,33.70
2018-05-29T01:20:31.373Z,32.23
2018-05-29T01:23:10.324Z,31.40
2018-05-29T01:25:42.292Z,29.47
2018-05-29T01:28:10.276Z,30.33
2018-05-29T01:30:37.885Z,29.90
2018-05-29T01:33:08.970Z,29.20
2018-05-29T01:35:37.428Z,30.93
2018-05-29T01:38:07.671Z,29.30
2018-05-29T01:40:37.915Z,35.43
2018-05-29T01:43:06.520Z,28.33
2018-05-29T01:45:34.097Z,28.67
2018-05-29T01:48:03.099Z,31.97
2018-05-29T01:50:34.318Z,28.20
2018-05-29T01:53:13.032Z,26.60
2018-05-29T01:55:42.679Z,29.37
2018-05-29T01:58:19.178Z,28.03
2018-05-29T02:00:47.201Z,28.83
2018-05-29T02:03:24.933Z,26.80
2018-05-29T02:06:00.853Z,30.17
2018-05-29T02:08:37.400Z,27.60
2018-05-29T02:11:05.098Z,27.80
2018-05-29T02:13:34.555Z,25.50
2018-05-29T02:16:04.308Z,26.23
2018-05-29T02:18:41.114Z,27.67
2018-05-29T02:21:16.250Z,23.40
2018-05-29T02:23:44.692Z,26.17
2018-05-29T02:26:14.717Z,25.93
2018-05-29T02:28:43.940Z,24.90
2018-05-29T02:31:15.506Z,27.57
2018-05-29T02:33:43.105Z,25.53
2018-05-29T02:36:13.265Z,24.97
2018-05-29T02:38:43.463Z,27.23
2018-05-29T02:41:12.459Z,27.40
2018-05-29T02:43:41.006Z,29.93
2018-05-29T02:46:11.406Z,26.93
2018-05-29T02:48:49.182Z,26.57
2018-05-29T02:51:23.287Z,26.67
2018-05-29T02:53:57.271Z,28.10
2018-05-29T02:56:24.886Z,28.77
2018-05-29T02:58:52.481Z,26.73
2018-05-29T03:01:20.065Z,27.13
2018-05-29T03:03:50.433Z,28.33
2018-05-29T03:06:18.245Z,26.90
2018-05-29T03:08:46.856Z,27.70
2018-05-29T03:11:16.555Z,27.20
2018-05-29T03:13:45.857Z,28.47
2018-05-29T03:16:19.198Z,28.73
2018-05-29T03:18:47.556Z,26.90
2018-05-29T03:21:15.720Z,29.50
2018-05-29T03:23:44.287Z,27.10
2018-05-29T03:26:12.568Z,28.93
2018-05-29T03:28:41.323Z,29.77
2018-05-29T03:31:13.698Z,25.73
2018-05-29T03:33:41.262Z,25.77
2018-05-29T03:36:09.585Z,28.83
2018-05-29T03:38:43.382Z,29.30
2018-05-29T03:41:19.369Z,25.87
2018-05-29T03:43:49.414Z,31.50
2018-05-29T03:46:20.904Z,27.60
2018-05-29T03:48:48.683Z,28.43
2018-05-29T03:51:16.762Z,27.63
2018-05-29T03:53:45.640Z,28.80
2018-05-29T03:56:20.018Z,26.80
2018-05-29T03:58:56.427Z,26.77
2018-05-29T04:01:24.343Z,27.80
2018-05-29T04:03:52.860Z,28.87
2018-05-29T04:06:26.485Z,26.50
2018-05-29T04:08:55.455Z,29.13
2018-05-29T04:11:25.557Z,29.07
2018-05-29T04:13:58.364Z,28.00
2018-05-29T04:16:31.349Z,28.37
2018-05-29T04:19:04.239Z,27.97
2018-05-29T04:21:40.056Z,31.03
2018-05-29T04:24:12.860Z,31.10
2018-05-29T04:26:47.317Z,27.20
2018-05-29T04:29:22.409Z,27.27
2018-05-29T04:31:59.951Z,28.13
2018-05-29T04:34:34.581Z,28.57
2018-05-29T04:37:08.205Z,29.20
2018-05-29T04:39:43.430Z,27.00
2018-05-29T04:42:20.130Z,27.77
2018-05-29T04:44:54.163Z,26.67
2018-05-29T04:47:30.780Z,25.13
2018-05-29T04:49:58.636Z,23.63
2018-05-29T04:52:26.220Z,23.50
2018-05-29T04:54:56.025Z,25.80
2018-05-29T04:57:28.031Z,28.97
2018-05-29T05:00:00.159Z,23.60
2018-05-29T05:02:31.647Z,25.77
2018-05-29T05:04:59.261Z,23.53
2018-05-29T05:07:27.603Z,22.73
2018-05-29T05:09:55.196Z,21.70
2018-05-29T05:12:26.158Z,22.87
2018-05-29T05:14:55.318Z,22.43
2018-05-29T05:17:25.984Z,21.47
2018-05-29T05:19:54.352Z,21.83
2018-05-29T05:22:30.951Z,24.13
2018-05-29T05:25:00.626Z,22.83
2018-05-29T05:27:36.115Z,21.83
2018-05-29T05:30:09.137Z,21.70
2018-05-29T05:32:36.797Z,22.10
2018-05-29T05:35:05.667Z,20.40
2018-05-29T05:37:33.248Z,24.00
2018-05-29T05:40:05.356Z,19.40
2018-05-29T05:42:43.325Z,20.07
2018-05-29T05:45:11.279Z,23.23
2018-05-29T05:47:38.892Z,22.40
2018-05-29T05:50:14.582Z,20.33
2018-05-29T05:52:43.254Z,21.53
2018-05-29T05:55:16.957Z,22.67
2018-05-29T05:57:45.564Z,20.77
2018-05-29T06:00:15.224Z,21.77
2018-05-29T06:02:43.354Z,20.97
2018-05-29T06:05:11.018Z,19.90
2018-05-29T06:07:38.851Z,19.57
2018-05-29T06:10:11.107Z,21.97
2018-05-29T06:12:40.147Z,21.10
2018-05-29T06:15:08.572Z,19.83
2018-05-29T06:17:39.713Z,20.97
2018-05-29T06:20:15.398Z,23.07
2018-05-29T06:22:43.877Z,22.40
2018-05-29T06:25:12.832Z,19.37
2018-05-29T06:27:41.241Z,20.50
2018-05-29T06:30:09.039Z,20.80
2018-05-29T06:32:44.126Z,20.87
2018-05-29T06:35:14.207Z,24.10
2018-05-29T06:37:55.331Z,21.03
2018-05-29T06:40:29.568Z,20.80
2018-05-29T06:43:03.305Z,19.73
2018-05-29T06:45:35.583Z,21.53
2018-05-29T06:48:10.884Z,20.37
2018-05-29T06:50:53.414Z,20.43
2018-05-29T06:53:23.603Z,19.90
2018-05-29T06:55:56.198Z,19.37
2018-05-29T06:58:32.570Z,21.43
2018-05-29T07:01:00.583Z,19.40
2018-05-29T07:03:28.202Z,19.60
2018-05-29T07:05:55.786Z,21.67
2018-05-29T07:08:31.009Z,20.63
2018-05-29T07:11:03.064Z,21.33
2018-05-29T07:13:34.458Z,19.83
2018-05-29T07:16:11.655Z,22.93
2018-05-29T07:18:45.456Z,21.70
2018-05-29T07:21:22.640Z,21.67
2018-05-29T07:23:50.441Z,21.57
2018-05-29T07:26:18.544Z,22.97
2018-05-29T07:28:46.880Z,22.87
2018-05-29T07:31:14.480Z,23.47
2018-05-29T07:33:42.244Z,23.70
2018-05-29T07:36:09.866Z,23.13
2018-05-29T07:38:38.218Z,24.93
2018-05-29T07:41:09.069Z,24.77
2018-05-29T07:43:46.483Z,22.43
2018-05-29T07:46:24.289Z,21.23
2018-05-29T07:48:58.534Z,23.23
2018-05-29T07:51:30.816Z,21.13
2018-05-29T07:54:07.395Z,22.17
2018-05-29T07:56:35.043Z,21.00
2018-05-29T07:59:04.647Z,22.53
2018-05-29T08:01:33.223Z,24.90
2018-05-29T08:04:05.051Z,25.97
2018-05-29T08:06:36.765Z,25.63
2018-05-29T08:09:07.402Z,24.37
2018-05-29T08:11:38.594Z,23.60
2018-05-29T08:14:07.427Z,25.07
2018-05-29T08:16:36.109Z,23.70
2018-05-29T08:19:10.349Z,26.00
2018-05-29T08:21:39.163Z,26.37
2018-05-29T08:24:07.454Z,25.57
2018-05-29T08:26:36.078Z,27.80
2018-05-29T08:29:05.902Z,26.93
2018-05-29T08:31:34.612Z,24.97
2018-05-29T08:34:07.079Z,28.23
2018-05-29T08:36:37.891Z,28.10
2018-05-29T08:39:06.266Z,24.83
2018-05-29T08:41:34.123Z,25.40
2018-05-29T08:44:01.738Z,25.53
2018-05-29T08:46:32.312Z,27.17
2018-05-29T08:49:01.307Z,27.33
2018-05-29T08:51:29.531Z,25.83
2018-05-29T08:53:57.316Z,26.03
2018-05-29T08:56:25.210Z,26.67
2018-05-29T08:58:53.217Z,26.03
2018-05-29T09:01:21.140Z,26.43
2018-05-29T09:03:49.147Z,28.07
2018-05-29T09:06:19.322Z,26.60
2018-05-29T09:08:54.106Z,25.07
2018-05-29T09:11:22.532Z,26.43
2018-05-29T09:13:51.109Z,24.27
2018-05-29T09:16:18.795Z,24.50
2018-05-29T09:18:46.369Z,23.67
2018-05-29T09:21:18.980Z,23.43
2018-05-29T09:23:47.732Z,23.77
2018-05-29T09:26:16.846Z,22.97
2018-05-29T09:28:46.061Z,24.70
2018-05-29T09:31:14.532Z,23.57
2018-05-29T09:33:44.213Z,24.43
2018-05-29T09:36:13.000Z,25.57
2018-05-29T09:38:46.852Z,22.43
2018-05-29T09:41:15.208Z,24.27
2018-05-29T09:43:43.797Z,23.07
2018-05-29T09:46:13.220Z,22.90
2018-05-29T09:48:41.752Z,20.57
2018-05-29T09:51:09.518Z,22.87
2018-05-29T09:53:37.991Z,23.33
2018-05-29T09:56:13.643Z,24.03
2018-05-29T09:58:49.221Z,24.33
2018-05-29T10:01:28.555Z,24.37
2018-05-29T10:04:04.610Z,24.70
2018-05-29T10:06:40.014Z,28.57
2018-05-29T10:09:14.120Z,29.00
2018-05-29T10:11:44.232Z,27.60
2018-05-29T10:14:20.320Z,27.67
2018-05-29T10:16:47.914Z,28.77
2018-05-29T10:19:15.612Z,32.53
2018-05-29T10:21:43.288Z,28.63
2018-05-29T10:24:16.079Z,30.13
2018-05-29T10:26:46.719Z,30.13
2018-05-29T10:29:29.982Z,29.90
2018-05-29T10:31:57.612Z,29.87
2018-05-29T10:34:34.226Z,34.87
2018-05-29T10:37:09.544Z,30.57
2018-05-29T10:39:38.421Z,30.00
2018-05-29T10:42:09.787Z,28.30
2018-05-29T10:44:38.558Z,28.27
2018-05-29T10:47:08.245Z,28.03
2018-05-29T10:49:38.847Z,30.13
2018-05-29T10:52:06.984Z,28.73
2018-05-29T10:55:14.661Z,31.67
2018-05-29T10:57:43.873Z,29.93
2018-05-29T11:00:13.586Z,36.13
2018-05-29T11:02:42.024Z,31.30
2018-05-29T11:05:11.669Z,35.60
2018-05-29T11:07:39.739Z,32.87
2018-05-29T11:10:09.259Z,31.53
2018-05-29T11:12:40.870Z,31.07
2018-05-29T11:15:11.397Z,30.10
2018-05-29T11:17:39.986Z,33.30
2018-05-29T11:20:07.927Z,29.30
2018-05-29T11:22:39.771Z,29.63
2018-05-29T11:25:08.012Z,31.63
2018-05-29T11:27:35.647Z,29.83
2018-05-29T11:30:08.418Z,30.83
2018-05-29T11:32:36.952Z,30.57
2018-05-29T11:35:04.585Z,29.83
2018-05-29T11:37:36.266Z,28.40
2018-05-29T11:40:03.937Z,29.43
2018-05-29T11:42:40.460Z,30.20
2018-05-29T11:45:08.971Z,28.13
2018-05-29T11:47:40.131Z,27.77
2018-05-29T11:50:11.109Z,28.50
2018-05-29T11:52:43.717Z,28.53
2018-05-29T11:55:19.174Z,29.90
2018-05-29T11:57:54.017Z,27.40
2018-05-29T12:00:21.784Z,28.43
2018-05-29T12:02:51.084Z,27.70
2018-05-29T12:05:18.850Z,26.90
2018-05-29T12:07:47.603Z,27.57
2018-05-29T12:10:18.786Z,25.80
2018-05-29T12:12:51.311Z,27.43
2018-05-29T12:15:19.842Z,26.97
2018-05-29T12:17:54.454Z,25.67
2018-05-29T12:20:22.623Z,26.60
2018-05-29T12:22:53.583Z,27.77
2018-05-29T12:25:25.593Z,24.47
2018-05-29T12:27:55.138Z,27.33
2018-05-29T12:30:27.202Z,26.13
2018-05-29T12:32:55.129Z,28.43
2018-05-29T12:35:24.831Z,30.37
2018-05-29T12:37:56.517Z,28.43
2018-05-29T12:40:28.130Z,26.83
2018-05-29T12:42:57.244Z,27.20
2018-05-29T12:45:27.325Z,26.93
2018-05-29T12:48:05.273Z,24.40
2018-05-29T12:50:32.879Z,26.60
2018-05-29T12:53:01.218Z,27.03
2018-05-29T12:55:29.129Z,27.33
2018-05-29T12:58:06.284Z,25.73
2018-05-29T13:00:39.807Z,26.43
2018-05-29T13:03:08.108Z,28.13
2018-05-29T13:05:39.718Z,26.33
2018-05-29T13:08:07.478Z,27.43
2018-05-29T13:10:36.350Z,25.10
2018-05-29T13:13:12.919Z,27.57
2018-05-29T13:15:41.997Z,26.63
2018-05-29T13:18:09.608Z,23.60
2018-05-29T13:20:37.414Z,24.90
2018-05-29T13:23:07.423Z,23.40
2018-05-29T13:25:45.856Z,22.77
2018-05-29T13:28:15.529Z,21.13
2018-05-29T13:30:50.557Z,21.13
2018-05-29T13:33:33.443Z,24.77
2018-05-29T13:36:15.257Z,23.53
2018-05-29T13:38:43.484Z,23.17
2018-05-29T13:41:24.752Z,23.00
2018-05-29T13:44:14.502Z,23.70
2018-05-29T13:46:42.409Z,22.60
2018-05-29T13:49:21.282Z,22.07
2018-05-29T13:52:14.409Z,21.50
2018-05-29T13:54:42.240Z,20.87
2018-05-29T13:57:31.357Z,18.73
2018-05-29T14:00:12.425Z,18.10
2018-05-29T14:02:43.936Z,16.87
2018-05-29T14:05:14.381Z,18.00
2018-05-29T14:07:43.632Z,16.07
2018-05-29T14:10:12.384Z,17.07
2018-05-29T14:12:42.848Z,18.03
2018-05-29T14:15:10.422Z,17.27
2018-05-29T14:17:38.007Z,17.97
2018-05-29T14:20:06.019Z,16.60
2018-05-29T14:22:43.805Z,18.50
2018-05-29T14:25:12.576Z,18.10
2018-05-29T14:27:47.994Z,17.27
2018-05-29T14:30:17.926Z,18.07
2018-05-29T14:32:52.957Z,18.20
2018-05-29T14:35:27.156Z,18.30
2018-05-29T14:38:01.844Z,19.60
2018-05-29T14:40:36.318Z,18.07
2018-05-29T14:43:12.010Z,18.83
2018-05-29T14:45:47.888Z,18.43
2018-05-29T14:48:24.785Z,20.30
2018-05-29T14:51:02.500Z,20.77
2018-05-29T14:53:35.812Z,19.40
2018-05-29T14:56:18.923Z,22.27
2018-05-29T14:58:51.254Z,18.40
2018-05-29T15:01:26.469Z,20.07
2018-05-29T15:04:02.183Z,18.30
2018-05-29T15:06:36.820Z,20.23
2018-05-29T15:09:07.262Z,18.67
2018-05-29T15:11:38.465Z,19.87
2018-05-29T15:14:09.565Z,19.80
2018-05-29T15:16:39.776Z,20.53
2018-05-29T15:19:11.862Z,22.00
2018-05-29T15:22:06.045Z,21.87
2018-05-29T15:24:34.474Z,21.80
2018-05-29T15:27:02.058Z,22.17
2018-05-29T15:29:30.768Z,22.23
2018-05-29T15:32:05.866Z,23.40
2018-05-29T15:34:40.582Z,23.77
2018-05-29T15:37:09.972Z,26.60
2018-05-29T15:39:49.987Z,20.70
2018-05-29T15:42:24.647Z,22.00
2018-05-29T15:44:56.980Z,19.87
2018-05-29T15:47:29.540Z,22.67
2018-05-29T15:50:03.431Z,21.43
2018-05-29T15:52:38.749Z,22.97
2018-05-29T15:55:21.463Z,21.20
2018-05-29T15:57:50.753Z,20.50
2018-05-29T16:00:26.849Z,18.93
2018-05-29T16:03:00.419Z,21.23
2018-05-29T16:05:33.399Z,19.13
2018-05-29T16:08:12.612Z,19.37
2018-05-29T16:10:41.038Z,21.03
2018-05-29T16:13:12.654Z,19.20
2018-05-29T16:15:49.899Z,20.77
2018-05-29T16:18:17.495Z,19.70
2018-05-29T16:20:45.959Z,20.53
2018-05-29T16:23:15.485Z,19.77
2018-05-29T16:25:43.885Z,22.70
2018-05-29T16:28:20.004Z,20.73
2018-05-29T16:30:53.522Z,28.97
2018-05-29T16:33:21.111Z,24.27
2018-05-29T16:35:49.246Z,23.67
2018-05-29T16:38:17.626Z,24.37
2018-05-29T16:40:45.782Z,25.50
2018-05-29T16:43:15.982Z,24.57
2018-05-29T16:45:46.513Z,25.97
2018-05-29T16:48:14.484Z,30.40
2018-05-29T16:50:43.473Z,27.27
2018-05-29T16:53:18.359Z,27.40
2018-05-29T16:55:50.024Z,28.00
2018-05-29T16:58:20.795Z,27.43
2018-05-29T17:00:55.572Z,26.07
2018-05-29T17:03:23.470Z,35.53
2018-05-29T17:05:52.042Z,27.10
2018-05-29T17:08:21.896Z,30.17
2018-05-29T17:10:55.029Z,27.93
2018-05-29T17:13:28.797Z,29.20
2018-05-29T17:16:05.016Z,29.60
2018-05-29T17:18:33.400Z,30.70
2018-05-29T17:21:01.022Z,32.07
2018-05-29T17:23:28.616Z,29.83
2018-05-29T17:25:59.954Z,35.00
2018-05-29T17:28:36.148Z,34.70
2018-05-29T17:31:07.539Z,34.70
2018-05-29T17:33:40.136Z,37.53
2018-05-29T17:36:09.583Z,33.70
2018-05-29T17:38:38.076Z,37.23
2018-05-29T17:41:07.627Z,33.93
2018-05-29T17:43:35.272Z,39.13
2018-05-29T17:46:12.127Z,36.80
2018-05-29T17:48:46.152Z,38.40
2018-05-29T17:51:22.677Z,39.20
2018-05-29T17:53:56.315Z,43.87
2018-05-29T17:56:25.014Z,37.53
2018-05-29T17:58:53.276Z,39.03
2018-05-29T18:01:21.483Z,51.73
2018-05-29T18:03:51.179Z,45.90
2018-05-29T18:06:21.372Z,42.43
2018-05-29T18:08:48.968Z,37.90
2018-05-29T18:11:17.195Z,40.83
2018-05-29T18:13:47.336Z,41.50
2018-05-29T18:16:24.462Z,42.30
2018-05-29T18:18:52.594Z,39.77
2018-05-29T18:21:21.068Z,41.03
2018-05-29T18:23:50.731Z,39.80
2018-05-29T18:26:24.108Z,39.80
2018-05-29T18:28:51.912Z,45.40
2018-05-29T18:31:31.868Z,41.07
2018-05-29T18:34:03.388Z,47.33
2018-05-29T18:36:34.144Z,40.33
2018-05-29T18:39:02.901Z,43.80
2018-05-29T18:41:38.520Z,42.47
2018-05-29T18:44:06.879Z,41.23
2018-05-29T18:46:37.928Z,45.17
2018-05-29T18:49:05.819Z,41.50
2018-05-29T18:51:37.976Z,39.50
2018-05-29T18:54:14.952Z,49.67
2018-05-29T18:56:50.460Z,36.37
2018-05-29T18:59:25.243Z,37.23
2018-05-29T19:02:03.132Z,41.37
2018-05-29T19:04:33.346Z,36.30
2018-05-29T19:07:15.260Z,37.20
2018-05-29T19:09:50.352Z,37.13
2018-05-29T19:12:27.622Z,37.33
2018-05-29T19:15:00.271Z,41.60
2018-05-29T19:17:34.357Z,35.40
2018-05-29T19:20:08.236Z,36.00
2018-05-29T19:22:37.154Z,38.57
2018-05-29T19:25:05.507Z,41.50
2018-05-29T19:27:35.279Z,38.37
2018-05-29T19:30:15.621Z,38.10
2018-05-29T19:32:47.285Z,41.97
2018-05-29T19:35:22.729Z,37.83
2018-05-29T19:37:52.583Z,40.67
2018-05-29T19:40:30.383Z,42.23
2018-05-29T19:43:01.720Z,38.53
2018-05-29T19:45:39.321Z,40.30
2018-05-29T19:48:13.186Z,37.17
2018-05-29T19:50:46.650Z,35.30
2018-05-29T19:53:25.759Z,34.10
2018-05-29T19:55:58.992Z,44.83
2018-05-29T19:58:30.671Z,35.03
2018-05-29T20:01:14.101Z,52.23
2018-05-29T20:03:47.726Z,43.50
2018-05-29T20:06:16.286Z,36.17
2018-05-29T20:08:46.162Z,34.97
2018-05-29T20:11:15.084Z,33.80
2018-05-29T20:13:52.168Z,33.50
2018-05-29T20:16:20.388Z,32.07
2018-05-29T20:18:51.682Z,32.87
2018-05-29T20:21:30.217Z,38.47
2018-05-29T20:24:02.902Z,34.63
2018-05-29T20:26:38.182Z,31.97
2018-05-29T20:29:10.495Z,42.00
2018-05-29T20:31:42.505Z,36.37
2018-05-29T20:34:19.132Z,36.47
2018-05-29T20:36:47.654Z,36.37
2018-05-29T20:39:17.192Z,33.67
2018-05-29T20:42:00.668Z,37.33
2018-05-29T20:44:31.330Z,35.43
2018-05-29T20:47:04.666Z,36.83
2018-05-29T20:49:34.808Z,44.27
2018-05-29T20:52:04.741Z,36.97
2018-05-29T20:54:32.399Z,35.63
2018-05-29T20:57:04.114Z,35.30
2018-05-29T20:59:40.713Z,36.57
2018-05-29T21:02:13.695Z,40.57
2018-05-29T21:04:41.971Z,37.57
2018-05-29T21:07:10.448Z,34.50
2018-05-29T21:09:39.418Z,36.07
2018-05-29T21:12:11.160Z,37.67
2018-05-29T21:14:41.335Z,35.73
2018-05-29T21:17:09.721Z,38.30
2018-05-29T21:19:38.383Z,34.60
2018-05-29T21:22:06.319Z,34.90
2018-05-29T21:24:39.641Z,35.30
2018-05-29T21:27:08.020Z,33.47
2018-05-29T21:29:35.776Z,32.60
2018-05-29T21:32:04.995Z,34.70
2018-05-29T21:34:34.880Z,33.97
2018-05-29T21:37:02.735Z,36.90
2018-05-29T21:39:33.101Z,37.97
2018-05-29T21:42:02.305Z,42.30
2018-05-29T21:44:30.454Z,47.90
2018-05-29T21:46:58.118Z,36.53
2018-05-29T21:49:28.275Z,35.13
2018-05-29T21:51:56.022Z,38.00
2018-05-29T21:54:28.052Z,37.70
2018-05-29T21:56:58.100Z,31.17
2018-05-29T21:59:35.652Z,32.63
2018-05-29T22:02:07.160Z,34.60
2018-05-29T22:04:36.081Z,29.23
2018-05-29T22:07:06.983Z,39.83
2018-05-29T22:09:35.222Z,35.23
2018-05-29T22:12:07.118Z,38.13
2018-05-29T22:14:43.222Z,34.20
2018-05-29T22:17:10.942Z,32.43
2018-05-29T22:19:51.185Z,34.93
2018-05-29T22:22:26.881Z,32.50
2018-05-29T22:24:55.488Z,40.03
2018-05-29T22:27:26.576Z,33.40
2018-05-29T22:29:55.840Z,31.17
2018-05-29T22:32:23.930Z,31.90
2018-05-29T22:34:53.588Z,34.93
2018-05-29T22:37:21.939Z,32.03
2018-05-29T22:39:53.949Z,33.03
2018-05-29T22:42:22.051Z,35.97
2018-05-29T22:44:54.788Z,33.03
2018-05-29T22:47:23.359Z,34.10
2018-05-29T22:49:53.172Z,37.00
2018-05-29T22:52:29.123Z,39.87
2018-05-29T22:54:57.366Z,33.70
2018-05-29T22:57:26.664Z,32.30
2018-05-29T22:59:55.205Z,30.97
2018-05-29T23:02:28.936Z,32.63
2018-05-29T23:04:58.573Z,30.43
2018-05-29T23:07:31.655Z,33.23
2018-05-29T23:10:01.288Z,33.07
2018-05-29T23:12:30.751Z,31.17
2018-05-29T23:14:59.545Z,30.37
2018-05-29T23:17:37.792Z,29.80
2018-05-29T23:20:06.828Z,28.30
2018-05-29T23:22:36.722Z,29.90
2018-05-29T23:25:13.428Z,28.87
2018-05-29T23:27:47.805Z,27.53
2018-05-29T23:30:23.759Z,30.03
2018-05-29T23:33:00.695Z,27.83
2018-05-29T23:35:34.196Z,31.40
2018-05-29T23:38:07.751Z,31.00
2018-05-29T23:40:37.110Z,30.80
2018-05-29T23:43:05.176Z,28.60
2018-05-29T23:45:32.798Z,29.10
2018-05-29T23:48:01.973Z,28.20
2018-05-29T23:50:40.471Z,29.07
2018-05-29T23:53:09.844Z,27.07
2018-05-29T23:55:39.515Z,27.37
2018-05-29T23:58:09.281Z,34.87
